Time;durP1;ratioP1;P1;durP2;ratioP2;P2;SDS_P1;SDS_P2;PMS_P1;PMS_P2;Temp;Humidity;BMP_temperature;BMP_pressure;BME280_temperature;BME280_humidity;BME280_pressure;Samples;Min_cycle;Max_cycle;Signal;HPM_P1;HPM_P2
2022/10/23 00:05:04;;;;;;;5.53;1.40;;;;;;;12.15;100.00;98577.75;15284966;19;20358;-58
2022/10/23 00:10:29;;;;;;;3.85;1.10;;;;;;;12.20;100.00;98571.84;15275855;19;20511;-59
2022/10/23 00:15:57;;;;;;;3.13;1.10;;;;;;;12.22;100.00;98573.34;15279870;19;20457;-60
2022/10/23 00:21:22;;;;;;;5.00;1.10;;;;;;;12.22;100.00;98570.63;15279025;19;20459;-61
2022/10/23 00:26:47;;;;;;;2.42;1.00;;;;;;;12.21;100.00;98571.66;15280332;19;20026;-61
2022/10/23 00:32:14;;;;;;;5.15;1.20;;;;;;;12.23;100.00;98577.72;15281906;19;20031;-60
2022/10/23 00:37:40;;;;;;;3.40;1.10;;;;;;;12.22;100.00;98573.34;15281306;19;20026;-60
2022/10/23 00:43:05;;;;;;;2.92;1.02;;;;;;;12.22;100.00;98577.91;15274980;19;20022;-62
2022/10/23 00:48:34;;;;;;;4.25;1.23;;;;;;;12.21;100.00;98577.06;15281033;19;20061;-61
2022/10/23 00:54:02;;;;;;;3.00;1.10;;;;;;;12.17;100.00;98581.13;15283142;19;20029;-62
2022/10/23 00:59:41;;;;;;;4.88;1.27;;;;;;;12.13;100.00;98587.84;15278363;19;20022;-61
2022/10/23 01:05:09;;;;;;;3.05;1.20;;;;;;;12.13;100.00;98569.78;15273793;19;20015;-59
2022/10/23 01:10:43;;;;;;;7.05;1.10;;;;;;;12.14;100.00;98570.66;15275029;19;20031;-60
2022/10/23 01:16:18;;;;;;;4.97;1.30;;;;;;;12.14;100.00;98559.84;15274175;19;20014;-59
2022/10/23 01:21:57;;;;;;;4.00;1.10;;;;;;;12.15;100.00;98561.53;15274139;19;20373;-59
2022/10/23 01:27:29;;;;;;;3.43;1.30;;;;;;;12.13;100.00;98553.56;15278328;19;20086;-59
2022/10/23 01:32:59;;;;;;;3.08;1.10;;;;;;;12.12;100.00;98561.84;15279020;19;20022;-60
2022/10/23 01:38:42;;;;;;;3.47;1.20;;;;;;;12.09;100.00;98562.19;15274957;19;20480;-58
2022/10/23 01:44:18;;;;;;;4.40;1.17;;;;;;;12.04;100.00;98557.28;15268912;19;20434;-60
2022/10/23 01:49:45;;;;;;;4.55;1.10;;;;;;;12.01;100.00;98554.91;15271926;19;20153;-62
2022/10/23 01:55:10;;;;;;;3.72;1.27;;;;;;;11.98;100.00;98548.00;15278793;19;20022;-59
2022/10/23 02:00:41;;;;;;;4.20;1.30;;;;;;;11.95;100.00;98545.59;15274203;19;20022;-60
2022/10/23 02:06:06;;;;;;;3.77;1.10;;;;;;;11.91;100.00;98549.66;15273165;19;20477;-59
2022/10/23 02:11:36;;;;;;;4.07;1.20;;;;;;;11.88;100.00;98545.41;15273167;19;20019;-60
2022/10/23 02:17:14;;;;;;;2.40;1.20;;;;;;;11.84;100.00;98538.69;15266366;19;20014;-60
2022/10/23 02:22:46;;;;;;;4.05;1.30;;;;;;;11.79;100.00;98534.81;15271631;19;20357;-62
2022/10/23 02:28:16;;;;;;;2.73;1.20;;;;;;;11.74;100.00;98518.25;15277210;19;20089;-60
2022/10/23 02:33:48;;;;;;;3.67;1.10;;;;;;;11.68;100.00;98514.34;15276130;19;20045;-62
2022/10/23 02:39:12;;;;;;;2.25;0.90;;;;;;;11.66;100.00;98509.13;15271705;19;20747;-60
2022/10/23 02:44:46;;;;;;;2.90;1.02;;;;;;;11.64;100.00;98500.34;15272251;19;20028;-63
2022/10/23 02:50:20;;;;;;;4.72;0.95;;;;;;;11.69;100.00;98498.00;15264267;19;20430;-63
2022/10/23 02:55:56;;;;;;;3.03;0.98;;;;;;;11.71;100.00;98498.66;15270118;19;20026;-62
2022/10/23 03:01:24;;;;;;;2.50;0.90;;;;;;;11.64;100.00;98500.34;15270381;19;20357;-60
2022/10/23 03:06:52;;;;;;;2.45;0.90;;;;;;;11.55;100.00;98501.34;15270108;19;20032;-61
2022/10/23 03:12:17;;;;;;;2.38;0.90;;;;;;;11.49;100.00;98491.22;15267899;19;20018;-59
2022/10/23 03:17:42;;;;;;;5.03;0.90;;;;;;;11.49;100.00;98492.06;15270155;19;20014;-61
2022/10/23 03:23:21;;;;;;;4.72;1.02;;;;;;;11.54;100.00;98494.28;15261493;19;20119;-59
2022/10/23 03:28:46;;;;;;;5.53;1.05;;;;;;;11.53;100.00;98492.59;15270688;19;20540;-61
2022/10/23 03:34:08;;;;;;;4.82;1.00;;;;;;;11.54;100.00;98494.28;15285989;19;20031;-60
2022/10/23 03:39:38;;;;;;;1.70;0.73;;;;;;;11.54;100.00;98487.00;15274696;19;20617;-62
2022/10/23 03:45:03;;;;;;;23.63;20.90;;;;;;;11.57;100.00;98502.03;15279820;19;20055;-60
2022/10/23 03:50:28;;;;;;;4.13;1.30;;;;;;;11.55;100.00;98510.28;15280243;19;20030;-59
2022/10/23 03:55:55;;;;;;;2.40;0.85;;;;;;;11.52;100.00;98498.97;15278142;19;20018;-60
2022/10/23 04:01:20;;;;;;;2.70;0.90;;;;;;;11.47;100.00;98491.38;15283690;19;20019;-59
2022/10/23 04:06:45;;;;;;;2.65;0.80;;;;;;;11.46;100.00;98487.00;15282201;19;20030;-60
2022/10/23 04:12:13;;;;;;;2.08;0.80;;;;;;;11.44;100.00;98499.81;15284305;19;20010;-60
2022/10/23 04:17:38;;;;;;;2.28;0.80;;;;;;;11.43;100.00;98498.13;15282280;19;20029;-59
2022/10/23 04:23:09;;;;;;;5.65;0.80;;;;;;;11.41;100.00;98500.13;15278900;19;20018;-60
2022/10/23 04:28:36;;;;;;;3.58;0.88;;;;;;;11.42;100.00;98496.44;15275283;19;20014;-58
2022/10/23 04:34:01;;;;;;;2.50;0.82;;;;;;;11.40;100.00;98488.50;15283793;19;20022;-60
2022/10/23 04:39:26;;;;;;;5.03;0.80;;;;;;;11.35;100.00;98481.91;15277887;19;20029;-61
2022/10/23 04:44:53;;;;;;;4.28;0.98;;;;;;;11.34;100.00;98488.31;15277559;19;20447;-60
2022/10/23 04:50:19;;;;;;;3.33;0.73;;;;;;;11.32;100.00;98484.94;15276986;19;20407;-58
2022/10/23 04:56:07;;;;;;;3.28;0.90;;;;;;;11.33;100.00;98482.09;15280889;19;20022;-59
2022/10/23 05:01:36;;;;;;;3.47;0.80;;;;;;;11.32;100.00;98476.84;15275391;19;20022;-58
2022/10/23 05:07:01;;;;;;;2.63;0.80;;;;;;;11.30;100.00;98476.16;15278258;19;20476;-59
2022/10/23 05:12:46;;;;;;;2.75;0.98;;;;;;;11.25;100.00;98468.56;15279657;19;20417;-60
2022/10/23 05:18:19;;;;;;;4.53;1.10;;;;;;;11.23;100.00;98476.84;15277246;19;20022;-58
2022/10/23 05:23:53;;;;;;;2.55;0.95;;;;;;;11.20;100.00;98471.75;15280045;19;20018;-59
2022/10/23 05:29:42;;;;;;;3.13;0.93;;;;;;;11.18;100.00;98478.34;15272217;19;20406;-58
2022/10/23 05:35:17;;;;;;;3.05;1.00;;;;;;;11.16;100.00;98464.16;15271376;19;20014;-61
2022/10/23 05:40:42;;;;;;;3.00;0.75;;;;;;;11.17;100.00;98463.16;15271060;19;20041;-61
2022/10/23 05:46:07;;;;;;;2.15;1.00;;;;;;;11.16;100.00;98465.03;15271503;19;20514;-61
2022/10/23 05:51:53;;;;;;;4.55;1.05;;;;;;;11.20;100.00;98468.22;15272946;19;20457;-60
2022/10/23 05:57:28;;;;;;;2.05;0.85;;;;;;;11.18;100.00;98467.53;15271715;19;20053;-60
2022/10/23 06:02:55;;;;;;;6.55;1.13;;;;;;;11.19;100.00;98474.63;15267797;19;20050;-60
2022/10/23 06:08:27;;;;;;;2.72;0.80;;;;;;;11.22;100.00;98477.84;15272739;19;20015;-60
2022/10/23 06:13:52;;;;;;;2.95;0.90;;;;;;;11.20;100.00;98473.63;15274195;19;20481;-60
2022/10/23 06:19:18;;;;;;;2.38;0.90;;;;;;;11.16;100.00;98475.81;15272124;19;20033;-60
2022/10/23 06:24:45;;;;;;;2.83;1.08;;;;;;;11.10;100.00;98474.63;15265389;19;20040;-60
2022/10/23 06:30:12;;;;;;;2.22;0.90;;;;;;;11.02;100.00;98477.25;15270656;19;20022;-61
2022/10/23 06:35:37;;;;;;;2.08;1.00;;;;;;;10.94;100.00;98474.53;15264692;19;20368;-59
2022/10/23 06:41:04;;;;;;;2.35;1.10;;;;;;;10.96;100.00;98469.84;15269433;19;20029;-56
2022/10/23 06:46:33;;;;;;;5.25;1.17;;;;;;;11.05;100.00;98468.84;15266968;19;20014;-63
2022/10/23 06:52:16;;;;;;;4.18;1.10;;;;;;;11.15;100.00;98466.03;15274126;19;20416;-62
2022/10/23 06:58:09;;;;;;;2.55;1.00;;;;;;;11.21;100.00;98495.03;15274421;19;20047;-59
2022/10/23 07:03:49;;;;;;;2.85;1.08;;;;;;;11.25;100.00;98500.94;15276202;19;20094;-60
2022/10/23 07:09:14;;;;;;;2.60;0.93;;;;;;;11.20;100.00;98498.72;15278840;19;20524;-62
2022/10/23 07:14:41;;;;;;;4.90;1.08;;;;;;;11.21;100.00;98500.41;15292496;19;20374;-62
2022/10/23 07:20:07;;;;;;;2.03;0.93;;;;;;;11.25;100.00;98490.16;15281953;19;20081;-62
2022/10/23 07:25:40;;;;;;;3.25;1.13;;;;;;;11.35;100.00;98479.22;15281007;19;20022;-61
2022/10/23 07:31:09;;;;;;;2.10;1.10;;;;;;;11.44;100.00;98461.22;14770258;19;10000564;-63
2022/10/23 07:37:08;;;;;;;3.65;1.08;;;;;;;11.60;100.00;98463.09;15279868;19;20287;-60
2022/10/23 07:42:34;;;;;;;2.28;0.80;;;;;;;11.82;100.00;98480.47;15280842;19;20014;-62
2022/10/23 07:48:01;;;;;;;1.98;1.02;;;;;;;12.02;100.00;98475.59;15284201;19;20022;-63
2022/10/23 07:53:42;;;;;;;2.22;0.88;;;;;;;12.21;100.00;98463.59;15288104;19;20026;-62
2022/10/23 07:59:42;;;;;;;4.20;0.97;;;;;;;12.38;100.00;98452.78;15281362;19;20025;-62
2022/10/23 08:05:11;;;;;;;3.15;0.80;;;;;;;12.55;100.00;98449.00;15277781;19;20018;-61
2022/10/23 08:10:40;;;;;;;1.70;0.70;;;;;;;12.69;100.00;98436.66;15275312;19;20018;-62
2022/10/23 08:16:10;;;;;;;1.45;0.70;;;;;;;12.85;100.00;98437.59;15285112;19;20433;-63
2022/10/23 08:22:03;;;;;;;1.65;0.82;;;;;;;13.02;100.00;98408.59;15286287;19;20059;-61
2022/10/23 08:27:29;;;;;;;3.60;0.82;;;;;;;13.18;100.00;98405.81;15277411;19;20433;-64
2022/10/23 08:32:53;;;;;;;2.80;0.90;;;;;;;13.38;100.00;98416.16;15285577;19;20082;-62
2022/10/23 08:38:21;;;;;;;0.95;0.73;;;;;;;13.55;100.00;98416.91;15283643;19;20039;-62
2022/10/23 08:43:54;;;;;;;2.65;0.75;;;;;;;13.65;100.00;98414.81;15277043;19;20021;-64
2022/10/23 08:49:35;;;;;;;2.08;0.80;;;;;;;13.79;100.00;98421.31;15279231;19;20022;-60
2022/10/23 08:55:19;;;;;;;2.92;1.00;;;;;;;13.87;100.00;98407.69;15283182;19;20018;-60
2022/10/23 09:00:44;;;;;;;2.30;0.88;;;;;;;13.94;100.00;98398.81;15280329;19;20354;-62
2022/10/23 09:06:15;;;;;;;3.00;0.90;;;;;;;14.01;100.00;98397.91;15281360;19;20022;-61
2022/10/23 09:11:50;;;;;;;1.98;0.85;;;;;;;14.10;100.00;98382.44;15285529;19;20378;-60
2022/10/23 09:17:24;;;;;;;3.22;0.80;;;;;;;14.21;100.00;98377.56;15279057;19;20037;-62
2022/10/23 09:22:50;;;;;;;1.88;0.70;;;;;;;14.30;100.00;98381.88;15286871;19;20037;-61
2022/10/23 09:28:27;;;;;;;1.20;0.60;;;;;;;14.42;100.00;98372.25;15281791;19;20026;-61
2022/10/23 09:33:57;;;;;;;2.65;0.70;;;;;;;14.57;100.00;98365.97;15282004;19;20481;-60
2022/10/23 09:39:33;;;;;;;1.58;0.88;;;;;;;14.74;100.00;98356.66;15276057;19;20029;-61
2022/10/23 09:45:01;;;;;;;1.52;0.80;;;;;;;14.94;100.00;98358.75;15268360;19;20400;-61
2022/10/23 09:50:29;;;;;;;1.42;0.57;;;;;;;15.19;100.00;98352.97;15268730;19;20014;-60
2022/10/23 09:55:56;;;;;;;2.25;0.70;;;;;;;15.35;100.00;98349.16;15274287;19;20389;-60
2022/10/23 10:01:34;;;;;;;1.60;0.70;;;;;;;15.55;100.00;98342.03;15277206;19;20029;-61
2022/10/23 10:07:22;;;;;;;1.95;0.70;;;;;;;15.76;100.00;98336.78;15274890;19;20432;-62
2022/10/23 10:13:01;;;;;;;1.80;0.80;;;;;;;15.96;100.00;98321.47;15279300;19;20481;-60
2022/10/23 10:18:41;;;;;;;2.40;0.63;;;;;;;16.06;100.00;98325.72;15281384;19;20018;-61
2022/10/23 10:24:13;;;;;;;1.05;0.60;;;;;;;16.21;100.00;98318.28;15275001;19;20018;-58
2022/10/23 10:29:50;;;;;;;1.50;0.60;;;;;;;16.24;100.00;98315.19;15303830;19;20015;-59
2022/10/23 10:35:33;;;;;;;0.90;0.60;;;;;;;16.28;100.00;98307.47;15325021;19;20074;-61
2022/10/23 10:41:18;;;;;;;1.65;0.60;;;;;;;16.33;100.00;98302.28;15294324;19;20022;-61
2022/10/23 10:46:51;;;;;;;2.08;0.70;;;;;;;16.43;100.00;98291.88;15280066;19;20025;-62
2022/10/23 10:52:31;;;;;;;2.08;0.65;;;;;;;16.51;100.00;98288.13;15280038;19;20046;-61
2022/10/23 10:58:00;;;;;;;1.05;0.50;;;;;;;16.59;100.00;98271.63;15315650;19;20022;-60
2022/10/23 11:03:35;;;;;;;1.55;0.60;;;;;;;16.67;100.00;98269.75;15328817;19;20014;-60
2022/10/23 11:09:03;;;;;;;0.52;0.50;;;;;;;16.80;100.00;98264.34;15334349;19;20022;-61
2022/10/23 11:14:40;;;;;;;0.85;0.50;;;;;;;16.92;100.00;98264.59;15331429;19;20019;-61
2022/10/23 11:20:10;;;;;;;0.75;0.60;;;;;;;17.04;100.00;98251.25;15327698;19;20044;-61
2022/10/23 11:26:06;;;;;;;1.38;0.60;;;;;;;17.10;100.00;98234.09;15320383;19;20035;-61
2022/10/23 11:31:46;;;;;;;1.60;0.60;;;;;;;17.27;100.00;98229.09;15323193;19;20007;-60
2022/10/23 11:37:18;;;;;;;0.93;0.40;;;;;;;17.38;100.00;98208.53;15320277;19;20022;-61
2022/10/23 11:42:55;;;;;;;1.02;0.52;;;;;;;17.51;100.00;98213.97;15279251;19;20517;-61
2022/10/23 11:48:25;;;;;;;0.90;0.50;;;;;;;17.61;100.00;98204.53;15276162;19;20785;-62
2022/10/23 11:53:51;;;;;;;0.88;0.50;;;;;;;17.76;100.00;98187.97;15289734;19;20011;-62
2022/10/23 11:59:27;;;;;;;0.80;0.43;;;;;;;17.83;100.00;98191.50;15282979;19;20353;-61
2022/10/23 12:04:56;;;;;;;2.75;0.70;;;;;;;17.98;100.00;98180.34;15288926;19;20078;-61
2022/10/23 12:10:28;;;;;;;0.90;0.50;;;;;;;18.07;100.00;98165.44;15285520;19;20491;-62
2022/10/23 12:16:01;;;;;;;0.75;0.57;;;;;;;18.21;100.00;98155.31;15288394;19;20363;-62
2022/10/23 12:21:30;;;;;;;0.50;0.40;;;;;;;18.31;100.00;98152.09;15288472;19;20081;-62
2022/10/23 12:27:06;;;;;;;1.75;0.55;;;;;;;18.38;100.00;98152.06;15280690;19;20023;-61
2022/10/23 12:32:58;;;;;;;2.13;0.45;;;;;;;18.42;100.00;98137.78;15279683;19;20022;-61
2022/10/23 12:38:25;;;;;;;0.55;0.40;;;;;;;18.55;100.00;98136.00;15279956;19;20448;-62
2022/10/23 12:43:56;;;;;;;1.50;0.50;;;;;;;18.55;100.00;98136.88;15284876;19;20093;-62
2022/10/23 12:49:26;;;;;;;0.70;0.45;;;;;;;18.58;100.00;98127.41;15278832;19;20492;-60
2022/10/23 12:54:52;;;;;;;1.52;0.60;;;;;;;18.62;100.00;98121.28;15282770;19;20025;-63
2022/10/23 13:00:18;;;;;;;0.50;0.40;;;;;;;18.73;100.00;98105.25;15278309;19;20022;-62
2022/10/23 13:05:48;;;;;;;1.58;0.60;;;;;;;18.83;100.00;98093.84;15269893;19;20641;-63
2022/10/23 13:11:13;;;;;;;1.70;0.68;;;;;;;18.92;100.00;98097.94;15277371;19;20030;-64
2022/10/23 13:16:42;;;;;;;0.77;0.45;;;;;;;18.96;100.00;98085.56;15279753;19;20011;-62
2022/10/23 13:22:12;;;;;;;0.88;0.60;;;;;;;19.00;100.00;98077.75;15283821;19;20029;-62
2022/10/23 13:27:37;;;;;;;2.05;0.50;;;;;;;19.05;100.00;98069.75;15279987;19;20018;-65
2022/10/23 13:33:01;;;;;;;0.40;0.40;;;;;;;19.08;100.00;98069.28;15280120;19;20615;-64
2022/10/23 13:38:36;;;;;;;0.85;0.55;;;;;;;19.09;100.00;98077.25;15278225;19;20025;-61
2022/10/23 13:44:01;;;;;;;2.58;0.57;;;;;;;19.07;100.00;98065.72;15278905;19;20053;-64
2022/10/23 13:49:26;;;;;;;1.38;0.50;;;;;;;19.02;100.00;98068.28;15273783;19;20010;-64
2022/10/23 13:54:53;;;;;;;1.30;0.40;;;;;;;18.99;100.00;98070.63;15279694;19;20015;-63
2022/10/23 14:00:19;;;;;;;1.73;0.60;;;;;;;18.91;100.00;98058.06;15270049;19;20025;-62
2022/10/23 14:05:43;;;;;;;1.15;0.60;;;;;;;18.85;100.00;98048.06;15275935;19;20018;-59
2022/10/23 14:11:12;;;;;;;3.90;0.60;;;;;;;18.77;100.00;98046.44;15275569;19;20037;-62
2022/10/23 14:16:36;;;;;;;1.63;0.50;;;;;;;18.71;100.00;98048.19;15277741;19;20033;-61
2022/10/23 14:22:01;;;;;;;2.30;0.60;;;;;;;18.62;100.00;98041.34;15280865;19;20019;-60
2022/10/23 14:27:35;;;;;;;1.23;0.50;;;;;;;18.56;100.00;98034.03;15275367;19;20037;-60
2022/10/23 14:33:00;;;;;;;2.25;0.60;;;;;;;18.47;100.00;98037.03;15277709;19;20488;-64
2022/10/23 14:38:25;;;;;;;1.60;0.50;;;;;;;18.38;100.00;98035.66;15271285;19;20481;-60
2022/10/23 14:43:55;;;;;;;1.00;0.60;;;;;;;18.23;100.00;98024.22;15280826;19;20017;-62
2022/10/23 14:49:26;;;;;;;1.77;0.50;;;;;;;18.10;100.00;98033.34;15274823;19;20018;-62
2022/10/23 14:54:53;;;;;;;0.70;0.57;;;;;;;17.96;100.00;98021.63;15273870;19;20026;-63
2022/10/23 15:00:15;;;;;;;1.00;0.70;;;;;;;17.84;100.00;98011.41;15272390;19;20014;-63
2022/10/23 15:05:40;;;;;;;0.82;0.57;;;;;;;17.74;100.00;98018.41;15274586;19;20486;-64
2022/10/23 15:11:06;;;;;;;0.50;0.50;;;;;;;17.65;100.00;98012.38;15268260;19;20484;-61
2022/10/23 15:16:39;;;;;;;0.73;0.60;;;;;;;17.51;100.00;98012.44;15272963;19;20007;-62
2022/10/23 15:22:04;;;;;;;0.70;0.70;;;;;;;17.43;100.00;98011.84;15277098;19;20014;-63
2022/10/23 15:27:36;;;;;;;1.58;0.80;;;;;;;17.33;100.00;98001.41;15252491;19;20031;-63
2022/10/23 15:33:04;;;;;;;2.03;0.60;;;;;;;17.24;100.00;98006.25;15282346;19;20025;-63
2022/10/23 15:38:33;;;;;;;1.42;0.80;;;;;;;17.18;100.00;97997.06;15286595;19;20042;-62
2022/10/23 15:43:59;;;;;;;1.55;0.80;;;;;;;17.07;100.00;97995.84;15282503;19;20527;-62
2022/10/23 15:49:28;;;;;;;1.02;0.70;;;;;;;17.03;100.00;97991.03;15282373;19;20010;-62
2022/10/23 15:54:53;;;;;;;1.55;0.70;;;;;;;16.89;100.00;97977.44;15287831;19;20398;-62
2022/10/23 16:00:18;;;;;;;2.92;0.70;;;;;;;16.80;100.00;97965.09;15284347;19;20022;-61
2022/10/23 16:05:46;;;;;;;1.80;0.60;;;;;;;16.70;100.00;97965.53;15285118;19;20027;-60
2022/10/23 16:11:11;;;;;;;0.73;0.60;;;;;;;16.64;100.00;97952.81;15275279;19;20015;-61
2022/10/23 16:16:36;;;;;;;3.13;0.57;;;;;;;16.49;100.00;97945.69;15279094;19;20029;-62
2022/10/23 16:22:04;;;;;;;1.73;0.60;;;;;;;16.41;100.00;97932.34;15286929;19;20783;-62
2022/10/23 16:27:35;;;;;;;0.90;0.60;;;;;;;16.27;100.00;97926.09;15280934;19;20018;-58
2022/10/23 16:33:00;;;;;;;0.68;0.60;;;;;;;16.16;100.00;97929.44;15284146;19;20049;-62
2022/10/23 16:38:28;;;;;;;2.53;0.80;;;;;;;16.05;100.00;97930.06;15283813;19;20018;-63
2022/10/23 16:43:52;;;;;;;1.95;1.00;;;;;;;15.95;100.00;97927.75;15280900;19;20020;-64
2022/10/23 16:49:30;;;;;;;2.38;0.82;;;;;;;15.88;100.00;97935.91;15272128;19;20350;-63
2022/10/23 16:54:58;;;;;;;1.05;0.80;;;;;;;15.77;100.00;97920.19;15286643;19;20015;-57
2022/10/23 17:00:28;;;;;;;1.95;0.70;;;;;;;15.69;100.00;97913.94;15275063;19;20018;-60
2022/10/23 17:05:52;;;;;;;0.80;0.70;;;;;;;15.64;100.00;97902.00;15280198;19;20460;-61
2022/10/23 17:11:24;;;;;;;1.35;0.70;;;;;;;15.58;100.00;97900.97;15275994;19;20486;-63
2022/10/23 17:16:50;;;;;;;2.67;0.85;;;;;;;15.55;100.00;97895.94;15283079;19;20021;-62
2022/10/23 17:22:16;;;;;;;2.97;0.77;;;;;;;15.51;100.00;97891.94;15278520;19;20030;-63
2022/10/23 17:27:50;;;;;;;2.55;0.60;;;;;;;15.40;100.00;97907.81;15275606;19;20034;-62
2022/10/23 17:33:14;;;;;;;2.28;0.70;;;;;;;15.37;100.00;97920.94;15275285;19;20009;-63
2022/10/23 17:38:39;;;;;;;2.30;0.73;;;;;;;15.34;100.00;97911.34;15276759;19;20034;-62
2022/10/23 17:44:06;;;;;;;1.02;0.63;;;;;;;15.33;100.00;97892.53;15272890;19;20021;-63
2022/10/23 17:49:32;;;;;;;1.83;0.60;;;;;;;15.33;100.00;97893.38;15272766;19;20017;-60
2022/10/23 17:55:02;;;;;;;2.00;0.70;;;;;;;15.32;100.00;97888.16;15274100;19;20393;-60
2022/10/23 18:00:30;;;;;;;1.50;0.60;;;;;;;15.34;100.00;97869.78;15275006;19;20838;-62
2022/10/23 18:05:57;;;;;;;2.22;0.70;;;;;;;15.32;100.00;97863.72;15269663;19;20472;-62
2022/10/23 18:11:26;;;;;;;2.22;0.70;;;;;;;15.32;100.00;97871.88;15275289;19;20017;-61
2022/10/23 18:16:54;;;;;;;1.48;0.95;;;;;;;15.32;100.00;97869.16;15278914;19;20078;-61
2022/10/23 18:22:19;;;;;;;2.47;0.70;;;;;;;15.34;100.00;97867.94;15277789;19;20018;-59
2022/10/23 18:27:50;;;;;;;1.42;0.60;;;;;;;15.33;100.00;97874.41;15264469;19;20017;-59
2022/10/23 18:33:26;;;;;;;1.33;0.60;;;;;;;15.35;100.00;97872.28;15275159;19;20035;-61
2022/10/23 18:38:52;;;;;;;1.10;0.70;;;;;;;15.41;100.00;97867.91;15274085;19;20369;-62
2022/10/23 18:44:18;;;;;;;2.60;0.75;;;;;;;15.43;100.00;97879.41;15277014;19;20827;-59
2022/10/23 18:49:46;;;;;;;1.35;0.80;;;;;;;15.42;100.00;97847.88;15275283;19;20018;-61
2022/10/23 18:55:12;;;;;;;1.70;0.70;;;;;;;15.40;100.00;97833.69;15275142;19;20014;-61
2022/10/23 19:00:37;;;;;;;0.70;0.60;;;;;;;15.36;100.00;97816.97;15261169;19;20376;-61
2022/10/23 19:06:04;;;;;;;2.17;0.65;;;;;;;15.34;100.00;97791.94;15265347;19;20033;-60
2022/10/23 19:11:25;;;;;;;1.27;0.60;;;;;;;15.36;100.00;97770.81;15286089;19;20021;-60
2022/10/23 19:16:55;;;;;;;2.13;0.55;;;;;;;15.39;100.00;97778.56;15330127;19;20018;-60
2022/10/23 19:22:22;;;;;;;1.10;0.50;;;;;;;15.41;100.00;97764.78;15299395;19;20815;-62
2022/10/23 19:27:56;;;;;;;3.20;0.63;;;;;;;15.44;100.00;97763.53;15270388;19;20445;-61
2022/10/23 19:33:20;;;;;;;1.63;0.60;;;;;;;15.46;100.00;97761.47;15280201;19;20006;-61
2022/10/23 19:38:48;;;;;;;1.48;0.60;;;;;;;15.47;100.00;97780.25;15271593;19;20017;-61
2022/10/23 19:44:13;;;;;;;4.97;1.60;;;;;;;15.45;100.00;97789.66;15272302;19;20039;-61
2022/10/23 19:49:37;;;;;;;3.03;1.67;;;;;;;15.46;100.00;97796.75;15261811;19;20025;-62
2022/10/23 19:55:05;;;;;;;1.83;0.55;;;;;;;15.43;100.00;97816.97;15267891;19;20014;-62
2022/10/23 20:00:30;;;;;;;3.20;0.90;;;;;;;15.45;100.00;97819.50;15255280;19;20035;-61
2022/10/23 20:05:54;;;;;;;1.92;0.60;;;;;;;15.44;100.00;97861.25;15270308;19;20018;-59
2022/10/23 20:11:24;;;;;;;2.05;0.70;;;;;;;15.43;100.00;97848.72;15264178;19;20010;-60
2022/10/23 20:16:50;;;;;;;0.85;0.60;;;;;;;15.34;100.00;97884.22;15279159;19;20015;-60
2022/10/23 20:22:15;;;;;;;4.25;0.63;;;;;;;15.32;100.00;97893.56;15277590;19;20086;-60
2022/10/23 20:27:49;;;;;;;1.65;0.70;;;;;;;15.28;100.00;97923.00;15276604;19;20349;-62
2022/10/23 20:33:13;;;;;;;1.23;0.80;;;;;;;15.24;100.00;97924.44;15278088;19;20038;-59
2022/10/23 20:38:38;;;;;;;0.77;0.60;;;;;;;15.10;100.00;97938.00;15276732;19;20033;-61
2022/10/23 20:44:06;;;;;;;1.65;0.70;;;;;;;14.91;100.00;97965.84;15278631;19;20022;-59
2022/10/23 20:49:52;;;;;;;3.30;0.90;;;;;;;14.57;100.00;97987.31;15277082;19;20094;-60
2022/10/23 20:55:16;;;;;;;2.22;0.80;;;;;;;14.47;100.00;97987.66;15280572;19;20140;-58
2022/10/23 21:00:44;;;;;;;1.05;0.80;;;;;;;14.39;100.00;98001.34;15273371;19;20021;-60
2022/10/23 21:06:32;;;;;;;3.58;0.90;;;;;;;14.37;100.00;97991.72;15275424;19;20020;-61
2022/10/23 21:12:19;;;;;;;2.20;0.80;;;;;;;14.36;100.00;97990.91;15281560;19;20014;-60
2022/10/23 21:17:48;;;;;;;1.42;0.90;;;;;;;14.29;100.00;97987.28;15280943;19;20510;-56
2022/10/23 21:23:25;;;;;;;2.00;0.90;;;;;;;14.21;100.00;97998.25;15275349;19;20018;-62
2022/10/23 21:28:51;;;;;;;2.15;0.80;;;;;;;14.17;100.00;97998.66;15275752;19;20898;-60
2022/10/23 21:34:38;;;;;;;2.95;1.08;;;;;;;14.11;100.00;98004.84;15278022;19;20014;-60
2022/10/23 21:40:02;;;;;;;2.22;0.90;;;;;;;14.06;100.00;98018.13;15269599;19;20041;-61
2022/10/23 21:45:28;;;;;;;3.08;0.93;;;;;;;13.99;100.00;97990.16;15277413;19;20018;-61
2022/10/23 21:50:58;;;;;;;1.60;1.20;;;;;;;13.96;100.00;97991.41;15274635;19;20014;-60
2022/10/23 21:56:33;;;;;;;2.75;1.20;;;;;;;13.87;100.00;97977.13;15276999;19;20030;-59
2022/10/23 22:01:57;;;;;;;1.88;0.98;;;;;;;13.82;100.00;97957.91;15276645;19;20833;-60
2022/10/23 22:07:25;;;;;;;1.10;0.88;;;;;;;13.75;100.00;97965.16;15271808;19;20021;-60
2022/10/23 22:12:49;;;;;;;1.77;1.08;;;;;;;13.68;100.00;97961.53;15269466;19;20013;-59
2022/10/23 22:18:14;;;;;;;2.22;1.10;;;;;;;13.61;100.00;97966.03;15273077;19;20077;-60
2022/10/23 22:23:41;;;;;;;2.42;1.13;;;;;;;13.58;100.00;97972.69;15277659;19;20060;-61
2022/10/23 22:29:09;;;;;;;3.92;1.02;;;;;;;13.54;100.00;97966.81;15273475;19;20037;-60
2022/10/23 22:34:33;;;;;;;2.13;1.10;;;;;;;13.54;100.00;97982.19;15275293;19;20025;-59
2022/10/23 22:40:13;;;;;;;2.60;1.13;;;;;;;13.51;100.00;97956.38;15273578;19;20346;-60
2022/10/23 22:45:37;;;;;;;4.78;1.23;;;;;;;13.48;100.00;97961.31;15273230;19;20022;-59
2022/10/23 22:51:02;;;;;;;2.72;1.40;;;;;;;13.47;100.00;97963.19;15271213;19;20018;-59
2022/10/23 22:56:31;;;;;;;3.95;1.40;;;;;;;13.47;100.00;97963.19;15274980;19;20021;-61
2022/10/23 23:01:57;;;;;;;2.53;1.10;;;;;;;13.46;100.00;97969.66;15274476;19;20011;-60
2022/10/23 23:07:21;;;;;;;4.30;1.30;;;;;;;13.50;100.00;97967.41;15271021;19;20025;-55
2022/10/23 23:12:49;;;;;;;2.92;1.23;;;;;;;13.50;100.00;97976.34;15271367;19;20031;-61
2022/10/23 23:18:13;;;;;;;4.00;1.38;;;;;;;13.51;100.00;97978.00;15271821;19;20347;-60
2022/10/23 23:23:39;;;;;;;2.90;1.15;;;;;;;13.52;100.00;97976.16;15271257;19;20018;-60
2022/10/23 23:29:06;;;;;;;3.00;1.50;;;;;;;13.46;100.00;97968.78;15268275;19;20025;-59
2022/10/23 23:34:31;;;;;;;1.77;1.20;;;;;;;13.45;100.00;97969.81;15272712;19;20021;-59
2022/10/23 23:39:56;;;;;;;3.40;1.40;;;;;;;13.43;100.00;97982.69;15268004;19;20537;-60
2022/10/23 23:45:23;;;;;;;2.28;1.40;;;;;;;13.47;100.00;97978.59;15264788;19;20022;-60
2022/10/23 23:50:47;;;;;;;2.65;1.33;;;;;;;13.49;100.00;97988.19;15280011;19;20385;-61
2022/10/23 23:56:13;;;;;;;2.75;1.40;;;;;;;13.51;100.00;97998.84;15288610;19;20537;-59
